California — KEBO — position and weather

sailwx.info

Track history (hours):
 
Tides and Currents Weather Stations Pressure Air Temp Water Temp Dewpoint Dewpoint Depression Visibility Wind Speed Wind Dir Waves Ship Positions

California

Owner: Crowley Petroleum Services, Jacksonville, FL. More information available from US FCC via Universal Licensing System and Coast Guard Vessel Documentation Center.

Last reported at 2018-Jun-22 00:57 UTC. Time now 2018-Jun-22 01:23 UTC.
Position N 38°03' W 122°16'.

Length 251 m; draft 10.7 m.

Type: Tanker. MMSI: 338500000.

Date/timePositionNaut miles runAvg speedWind from/ knotsBaromVisibWave heightAir tempDewpointWater temp
2018-Jun-22 00:57N 38°03' W 122°16'0 0.0
2018-Jun-22 00:28N 38°03' W 122°16'0 0.0
2018-Jun-21 23:58N 38°03' W 122°16'0 0.0
2018-Jun-21 23:22N 38°03' W 122°16'0 0.0
2018-Jun-21 02:32N 38°03' W 122°16'0 0.0
2018-Jun-21 02:26N 38°03' W 122°16'0 0.0
2018-Jun-21 01:56N 38°03' W 122°16'0 0.1
2018-Jun-21 01:30N 38°03' W 122°16'0 0.7
2018-Jun-21 01:00N 38°04' W 122°16'4 7.2
2018-Jun-21 00:30N 38°03' W 122°20'5 9.9
2018-Jun-21 00:00N 37°59' W 122°25'510.9
2018-Jun-20 23:30N 37°54' W 122°27'3 7.0
2018-Jun-20 23:00N 37°51' W 122°26'611.9
2018-Jun-20 22:30N 37°47' W 122°33'612.7
2018-Jun-20 22:01N 37°45' W 122°40'5 9.8
2018-Jun-20 21:30N 37°42' W 122°45'510.0
2018-Jun-20 21:00N 37°39' W 122°50'510.1
2018-Jun-20 20:30N 37°36' W 122°55'510.0
2018-Jun-20 20:00N 37°33' W 123°00'510.0
2018-Jun-20 19:30N 37°31' W 123°06'5 9.1
2018-Jun-20 19:00N 37°27' W 123°08'510.1
2018-Jun-20 18:30N 37°22' W 123°08'510.5
2018-Jun-20 18:01N 37°16' W 123°08'510.9
2018-Jun-20 17:31N 37°11' W 123°08'510.6
2018-Jun-20 17:01N 37°06' W 123°08'510.2
2018-Jun-20 16:31N 37°00' W 123°08'510.5
2018-Jun-20 16:00N 36°55' W 123°08'4 9.0
2018-Jun-20 15:31N 36°51' W 123°08'510.6
2018-Jun-20 15:01N 36°45' W 123°08'510.5
2018-Jun-20 14:30N 36°40' W 123°09'510.1
2018-Jun-20 14:00N 36°36' W 123°06'510.1
2018-Jun-20 13:31N 36°31' W 123°03'510.1
2018-Jun-20 13:00N 36°27' W 122°59'510.0
2018-Jun-20 12:30N 36°23' W 122°55'510.0
2018-Jun-20 12:00N 36°19' W 122°51'510.1
2018-Jun-20 11:30N 36°15' W 122°48'510.1
2018-Jun-20 11:00N 36°11' W 122°44'5 9.9
2018-Jun-20 10:30N 36°07' W 122°40'510.0
2018-Jun-20 10:01N 36°03' W 122°37'510.1
2018-Jun-20 09:31N 35°59' W 122°34'510.0
2018-Jun-20 09:00N 35°55' W 122°30'510.1
2018-Jun-20 08:30N 35°50' W 122°27'510.1
2018-Jun-20 08:01N 35°46' W 122°24'510.0
2018-Jun-20 07:30N 35°41' W 122°21'510.0
2018-Jun-20 07:01N 35°37' W 122°18'510.2
2018-Jun-20 06:31N 35°33' W 122°14'5 9.9
2018-Jun-20 06:00N 35°29' W 122°10'5 9.8
2018-Jun-20 05:31N 35°25' W 122°07'510.0
2018-Jun-20 05:00N 35°21' W 122°04'510.0
2018-Jun-20 04:30N 35°17' W 122°00'5 9.7
2018-Jun-20 04:00N 35°13' W 121°57'5 9.6
2018-Jun-20 03:30N 35°09' W 121°54'5 9.3
2018-Jun-20 03:00N 35°05' W 121°51'5 9.8
2018-Jun-20 02:31N 35°01' W 121°47'5 9.9
2018-Jun-20 02:00N 34°56' W 121°44'510.0
2018-Jun-20 01:30N 34°52' W 121°41'5 9.9
2018-Jun-20 01:00N 34°48' W 121°37'5 9.8
2018-Jun-20 00:30N 34°44' W 121°34'5 9.6
2018-Jun-20 00:00N 34°40' W 121°31'5 9.2
2018-Jun-19 23:30N 34°36' W 121°28'5 9.3
2018-Jun-19 23:00N 34°33' W 121°24'5 9.8
2018-Jun-19 22:30N 34°30' W 121°19'5 9.7
2018-Jun-19 22:00N 34°27' W 121°15'510.0
2018-Jun-19 21:30N 34°23' W 121°12'5 9.8
2018-Jun-19 20:59N 34°18' W 121°08'510.0
2018-Jun-19 20:30N 34°15' W 121°05'510.0
2018-Jun-19 20:00N 34°10' W 121°01'510.0
2018-Jun-19 19:30N 34°06' W 120°58'5 9.9
2018-Jun-19 19:00N 34°02' W 120°54'5 9.7
2018-Jun-19 18:30N 33°58' W 120°51'5 9.9
2018-Jun-19 18:00N 33°54' W 120°48'510.0
2018-Jun-19 17:30N 33°50' W 120°44'5 9.6
2018-Jun-19 17:00N 33°46' W 120°41'510.6
2018-Jun-19 16:30N 33°42' W 120°37'713.0
2018-Jun-19 16:00N 33°41' W 120°29'713.6
2018-Jun-19 15:30N 33°41' W 120°21'713.7
2018-Jun-19 15:01N 33°41' W 120°13'713.8
2018-Jun-19 14:31N 33°41' W 120°05'714.2
2018-Jun-19 14:00N 33°41' W 119°56'714.8
2018-Jun-19 13:30N 33°41' W 119°47'714.7
2018-Jun-19 13:00N 33°41' W 119°38'714.5
2018-Jun-19 12:30N 33°41' W 119°30'714.2
2018-Jun-19 11:59N 33°41' W 119°21'713.9
2018-Jun-19 11:30N 33°41' W 119°13'612.6
2018-Jun-19 11:00N 33°41' W 119°05'612.0
2018-Jun-19 10:31N 33°41' W 118°58'712.0
2018-Jun-19 09:53N 33°40' W 118°49'512.0
2018-Jun-19 09:30N 33°40' W 118°44'611.7
2018-Jun-19 09:00N 33°39' W 118°37'611.8
2018-Jun-19 08:30N 33°39' W 118°30'611.9
2018-Jun-19 08:00N 33°38' W 118°22'611.9
2018-Jun-19 07:30N 33°38' W 118°15'5 9.9
2018-Jun-19 07:00N 33°42' W 118°11'3 5.3
2018-Jun-19 06:30N 33°44' W 118°13'1 1.9
2018-Jun-19 06:00N 33°45' W 118°13'0 0.0
2018-Jun-19 05:16N 33°45' W 118°13'0 0.0
2018-Jun-19 04:55N 33°45' W 118°13'0 0.0
2018-Jun-19 04:28N 33°45' W 118°13'0 0.0
2018-Jun-19 03:49N 33°45' W 118°13'0 0.0
2018-Jun-19 03:28N 33°45' W 118°13'0 0.0
2018-Jun-19 02:59N 33°45' W 118°13'0 0.0
2018-Jun-19 02:28N 33°45' W 118°13'0 0.0
2018-Jun-19 01:58N 33°45' W 118°13'0 0.0
2018-Jun-19 01:28N 33°45' W 118°13'0 0.0
2018-Jun-19 00:52N 33°45' W 118°13'0 0.0
2018-Jun-19 00:22N 33°45' W 118°13'0 0.0
2018-Jun-18 23:58N 33°45' W 118°13'0 0.0
2018-Jun-18 23:28N 33°45' W 118°13'0 0.0
2018-Jun-18 23:00N 33°45' W 118°13'0 0.0
2018-Jun-18 22:21N 33°45' W 118°13'0 0.0
2018-Jun-18 22:00N 33°45' W 118°13'0 0.0
2018-Jun-18 21:30N 33°45' W 118°13'0 0.0
2018-Jun-18 20:54N 33°45' W 118°13'0 0.0
2018-Jun-18 20:30N 33°45' W 118°13'0 0.0
2018-Jun-18 19:54N 33°45' W 118°13'0 0.0
2018-Jun-18 19:30N 33°45' W 118°13'0 0.0
2018-Jun-18 19:00N 33°45' W 118°13'0 0.0
2018-Jun-18 18:30N 33°45' W 118°13'0 0.0
2018-Jun-18 17:48N 33°45' W 118°13'0 0.0
2018-Jun-18 17:30N 33°45' W 118°13'0 0.0
2018-Jun-18 17:00N 33°45' W 118°13'0 0.0
2018-Jun-18 16:27N 33°45' W 118°13'0 0.0
2018-Jun-18 15:45N 33°45' W 118°13'0 0.0
2018-Jun-18 15:12N 33°45' W 118°13'0 0.0
2018-Jun-18 14:57N 33°45' W 118°13'0 0.0
2018-Jun-18 14:27N 33°45' W 118°13'0 0.0
2018-Jun-18 14:00N 33°45' W 118°13'0 0.0
2018-Jun-18 13:30N 33°45' W 118°13'0 0.0
2018-Jun-18 13:00N 33°45' W 118°13'0 0.0
2018-Jun-18 12:30N 33°45' W 118°13'0 0.0
2018-Jun-18 12:00N 33°45' W 118°13'0 0.0
2018-Jun-18 11:21N 33°45' W 118°13'0 0.0
2018-Jun-18 10:57N 33°45' W 118°13'0 0.0
2018-Jun-18 10:24N 33°45' W 118°13'0 0.0
2018-Jun-18 10:00N 33°45' W 118°13'0 0.0
2018-Jun-18 09:30N 33°45' W 118°13'0 0.0
2018-Jun-18 09:00N 33°45' W 118°13'1 2.8
2018-Jun-18 08:30N 33°44' W 118°12'3 5.4
2018-Jun-18 08:00N 33°42' W 118°11'4 7.6
2018-Jun-18 07:30N 33°38' W 118°12'510.8
2018-Jun-18 07:00N 33°36' W 118°18'611.9
2018-Jun-18 06:30N 33°36' W 118°25'611.7
2018-Jun-18 06:00N 33°36' W 118°32'611.7
2018-Jun-18 05:30N 33°36' W 118°39'611.6
2018-Jun-18 05:00N 33°37' W 118°46'611.7
2018-Jun-18 04:31N 33°37' W 118°53'612.1
2018-Jun-18 04:00N 33°38' W 119°00'5 9.3
2018-Jun-18 03:30N 33°38' W 119°06'510.3
2018-Jun-18 03:00N 33°38' W 119°12'612.8
2018-Jun-18 02:30N 33°38' W 119°20'613.0
2018-Jun-18 02:00N 33°38' W 119°28'713.0
2018-Jun-18 01:30N 33°38' W 119°35'713.1
2018-Jun-18 00:59N 33°38' W 119°43'613.5
2018-Jun-18 00:30N 33°38' W 119°51'713.5
2018-Jun-18 00:00N 33°38' W 119°59'713.5
2018-Jun-17 23:29N 33°38' W 120°08'713.5
2018-Jun-17 23:00N 33°38' W 120°16'714.0
2018-Jun-17 22:30N 33°38' W 120°24'713.8
2018-Jun-17 22:00N 33°38' W 120°32'713.6
2018-Jun-17 21:30N 33°38' W 120°40'713.6
2018-Jun-17 21:00N 33°38' W 120°49'713.4
2018-Jun-17 20:30N 33°38' W 120°57'612.4
2018-Jun-17 20:00N 33°38' W 121°04'612.7
2018-Jun-17 19:31N 33°42' W 121°11'713.5
2018-Jun-17 19:00N 33°46' W 121°17'713.7
2018-Jun-17 18:30N 33°50' W 121°23'713.9
2018-Jun-17 18:00N 33°54' W 121°30'713.9
2018-Jun-17 17:30N 33°58' W 121°37'713.8
2018-Jun-17 16:58N 34°02' W 121°45'614.0
2018-Jun-17 16:31N 34°05' W 121°51'713.9
2018-Jun-17 16:00N 34°09' W 121°58'813.8
2018-Jun-17 15:26N 34°14' W 122°06'1313.7
2018-Jun-17 14:28N 34°22' W 122°19'713.7
2018-Jun-17 13:59N 34°26' W 122°26'713.8
2018-Jun-17 13:30N 34°29' W 122°32'713.9
2018-Jun-17 13:00N 34°34' W 122°39'813.6
2018-Jun-17 12:26N 34°38' W 122°46'613.5
2018-Jun-17 12:00N 34°42' W 122°52'713.7
2018-Jun-17 11:29N 34°46' W 122°59'613.6
2018-Jun-17 11:00N 34°49' W 123°06'1113.4
2018-Jun-17 10:09N 34°56' W 123°17'213.6
2018-Jun-17 09:59N 34°57' W 123°19'3813.3
2018-Jun-17 07:06N 35°20' W 123°57'412.8
2018-Jun-17 06:49N 35°22' W 124°01'22312.7
2018-Jun-16 13:16N 37°32' W 127°46'613.1
2018-Jun-16 12:49N 37°38' W 127°49'413.3
2018-Jun-16 12:30N 37°41' W 127°51'813.3
2018-Jun-16 11:52N 37°49' W 127°56'  
Track history (hours):
 
Tides and Currents Weather Stations Pressure Air Temp Water Temp Dewpoint Dewpoint Depression Visibility Wind Speed Wind Dir Waves Ship Positions

California

Owner: Crowley Petroleum Services, Jacksonville, FL. More information available from US FCC via Universal Licensing System and Coast Guard Vessel Documentation Center.

Last reported at 2018-Jun-22 00:57 UTC. Time now 2018-Jun-22 01:23 UTC.
Position N 38°03' W 122°16'.

Length 251 m; draft 10.7 m.

Type: Tanker. MMSI: 338500000.

Date/timePositionNaut miles runAvg speedWind from/ knotsBaromVisibWave heightAir tempDewpointWater temp
2018-Jun-22 00:57N 38°03' W 122°16'0 0.0
2018-Jun-22 00:28N 38°03' W 122°16'0 0.0
2018-Jun-21 23:58N 38°03' W 122°16'0 0.0
2018-Jun-21 23:22N 38°03' W 122°16'0 0.0
2018-Jun-21 02:32N 38°03' W 122°16'0 0.0
2018-Jun-21 02:26N 38°03' W 122°16'0 0.0
2018-Jun-21 01:56N 38°03' W 122°16'0 0.1
2018-Jun-21 01:30N 38°03' W 122°16'0 0.7
2018-Jun-21 01:00N 38°04' W 122°16'4 7.2
2018-Jun-21 00:30N 38°03' W 122°20'5 9.9
2018-Jun-21 00:00N 37°59' W 122°25'510.9
2018-Jun-20 23:30N 37°54' W 122°27'3 7.0
2018-Jun-20 23:00N 37°51' W 122°26'611.9
2018-Jun-20 22:30N 37°47' W 122°33'612.7
2018-Jun-20 22:01N 37°45' W 122°40'5 9.8
2018-Jun-20 21:30N 37°42' W 122°45'510.0
2018-Jun-20 21:00N 37°39' W 122°50'510.1
2018-Jun-20 20:30N 37°36' W 122°55'510.0
2018-Jun-20 20:00N 37°33' W 123°00'510.0
2018-Jun-20 19:30N 37°31' W 123°06'5 9.1
2018-Jun-20 19:00N 37°27' W 123°08'510.1
2018-Jun-20 18:30N 37°22' W 123°08'510.5
2018-Jun-20 18:01N 37°16' W 123°08'510.9
2018-Jun-20 17:31N 37°11' W 123°08'510.6
2018-Jun-20 17:01N 37°06' W 123°08'510.2
2018-Jun-20 16:31N 37°00' W 123°08'510.5
2018-Jun-20 16:00N 36°55' W 123°08'4 9.0
2018-Jun-20 15:31N 36°51' W 123°08'510.6
2018-Jun-20 15:01N 36°45' W 123°08'510.5
2018-Jun-20 14:30N 36°40' W 123°09'510.1
2018-Jun-20 14:00N 36°36' W 123°06'510.1
2018-Jun-20 13:31N 36°31' W 123°03'510.1
2018-Jun-20 13:00N 36°27' W 122°59'510.0
2018-Jun-20 12:30N 36°23' W 122°55'510.0
2018-Jun-20 12:00N 36°19' W 122°51'510.1
2018-Jun-20 11:30N 36°15' W 122°48'510.1
2018-Jun-20 11:00N 36°11' W 122°44'5 9.9
2018-Jun-20 10:30N 36°07' W 122°40'510.0
2018-Jun-20 10:01N 36°03' W 122°37'510.1
2018-Jun-20 09:31N 35°59' W 122°34'510.0
2018-Jun-20 09:00N 35°55' W 122°30'510.1
2018-Jun-20 08:30N 35°50' W 122°27'510.1
2018-Jun-20 08:01N 35°46' W 122°24'510.0
2018-Jun-20 07:30N 35°41' W 122°21'510.0
2018-Jun-20 07:01N 35°37' W 122°18'510.2
2018-Jun-20 06:31N 35°33' W 122°14'5 9.9
2018-Jun-20 06:00N 35°29' W 122°10'5 9.8
2018-Jun-20 05:31N 35°25' W 122°07'510.0
2018-Jun-20 05:00N 35°21' W 122°04'510.0
2018-Jun-20 04:30N 35°17' W 122°00'5 9.7
2018-Jun-20 04:00N 35°13' W 121°57'5 9.6
2018-Jun-20 03:30N 35°09' W 121°54'5 9.3
2018-Jun-20 03:00N 35°05' W 121°51'5 9.8
2018-Jun-20 02:31N 35°01' W 121°47'5 9.9
2018-Jun-20 02:00N 34°56' W 121°44'510.0
2018-Jun-20 01:30N 34°52' W 121°41'5 9.9
2018-Jun-20 01:00N 34°48' W 121°37'5 9.8
2018-Jun-20 00:30N 34°44' W 121°34'5 9.6
2018-Jun-20 00:00N 34°40' W 121°31'5 9.2
2018-Jun-19 23:30N 34°36' W 121°28'5 9.3
2018-Jun-19 23:00N 34°33' W 121°24'5 9.8
2018-Jun-19 22:30N 34°30' W 121°19'5 9.7
2018-Jun-19 22:00N 34°27' W 121°15'510.0
2018-Jun-19 21:30N 34°23' W 121°12'5 9.8
2018-Jun-19 20:59N 34°18' W 121°08'510.0
2018-Jun-19 20:30N 34°15' W 121°05'510.0
2018-Jun-19 20:00N 34°10' W 121°01'510.0
2018-Jun-19 19:30N 34°06' W 120°58'5 9.9
2018-Jun-19 19:00N 34°02' W 120°54'5 9.7
2018-Jun-19 18:30N 33°58' W 120°51'5 9.9
2018-Jun-19 18:00N 33°54' W 120°48'510.0
2018-Jun-19 17:30N 33°50' W 120°44'5 9.6
2018-Jun-19 17:00N 33°46' W 120°41'510.6
2018-Jun-19 16:30N 33°42' W 120°37'713.0
2018-Jun-19 16:00N 33°41' W 120°29'713.6
2018-Jun-19 15:30N 33°41' W 120°21'713.7
2018-Jun-19 15:01N 33°41' W 120°13'713.8
2018-Jun-19 14:31N 33°41' W 120°05'714.2
2018-Jun-19 14:00N 33°41' W 119°56'714.8
2018-Jun-19 13:30N 33°41' W 119°47'714.7
2018-Jun-19 13:00N 33°41' W 119°38'714.5
2018-Jun-19 12:30N 33°41' W 119°30'714.2
2018-Jun-19 11:59N 33°41' W 119°21'713.9
2018-Jun-19 11:30N 33°41' W 119°13'612.6
2018-Jun-19 11:00N 33°41' W 119°05'612.0
2018-Jun-19 10:31N 33°41' W 118°58'712.0
2018-Jun-19 09:53N 33°40' W 118°49'512.0
2018-Jun-19 09:30N 33°40' W 118°44'611.7
2018-Jun-19 09:00N 33°39' W 118°37'611.8
2018-Jun-19 08:30N 33°39' W 118°30'611.9
2018-Jun-19 08:00N 33°38' W 118°22'611.9
2018-Jun-19 07:30N 33°38' W 118°15'5 9.9
2018-Jun-19 07:00N 33°42' W 118°11'3 5.3
2018-Jun-19 06:30N 33°44' W 118°13'1 1.9
2018-Jun-19 06:00N 33°45' W 118°13'0 0.0
2018-Jun-19 05:16N 33°45' W 118°13'0 0.0
2018-Jun-19 04:55N 33°45' W 118°13'0 0.0
2018-Jun-19 04:28N 33°45' W 118°13'0 0.0
2018-Jun-19 03:49N 33°45' W 118°13'0 0.0
2018-Jun-19 03:28N 33°45' W 118°13'0 0.0
2018-Jun-19 02:59N 33°45' W 118°13'0 0.0
2018-Jun-19 02:28N 33°45' W 118°13'0 0.0
2018-Jun-19 01:58N 33°45' W 118°13'0 0.0
2018-Jun-19 01:28N 33°45' W 118°13'0 0.0
2018-Jun-19 00:52N 33°45' W 118°13'0 0.0
2018-Jun-19 00:22N 33°45' W 118°13'0 0.0
2018-Jun-18 23:58N 33°45' W 118°13'0 0.0
2018-Jun-18 23:28N 33°45' W 118°13'0 0.0
2018-Jun-18 23:00N 33°45' W 118°13'0 0.0
2018-Jun-18 22:21N 33°45' W 118°13'0 0.0
2018-Jun-18 22:00N 33°45' W 118°13'0 0.0
2018-Jun-18 21:30N 33°45' W 118°13'0 0.0
2018-Jun-18 20:54N 33°45' W 118°13'0 0.0
2018-Jun-18 20:30N 33°45' W 118°13'0 0.0
2018-Jun-18 19:54N 33°45' W 118°13'0 0.0
2018-Jun-18 19:30N 33°45' W 118°13'0 0.0
2018-Jun-18 19:00N 33°45' W 118°13'0 0.0
2018-Jun-18 18:30N 33°45' W 118°13'0 0.0
2018-Jun-18 17:48N 33°45' W 118°13'0 0.0
2018-Jun-18 17:30N 33°45' W 118°13'0 0.0
2018-Jun-18 17:00N 33°45' W 118°13'0 0.0
2018-Jun-18 16:27N 33°45' W 118°13'0 0.0
2018-Jun-18 15:45N 33°45' W 118°13'0 0.0
2018-Jun-18 15:12N 33°45' W 118°13'0 0.0
2018-Jun-18 14:57N 33°45' W 118°13'0 0.0
2018-Jun-18 14:27N 33°45' W 118°13'0 0.0
2018-Jun-18 14:00N 33°45' W 118°13'0 0.0
2018-Jun-18 13:30N 33°45' W 118°13'0 0.0
2018-Jun-18 13:00N 33°45' W 118°13'0 0.0
2018-Jun-18 12:30N 33°45' W 118°13'0 0.0
2018-Jun-18 12:00N 33°45' W 118°13'0 0.0
2018-Jun-18 11:21N 33°45' W 118°13'0 0.0
2018-Jun-18 10:57N 33°45' W 118°13'0 0.0
2018-Jun-18 10:24N 33°45' W 118°13'0 0.0
2018-Jun-18 10:00N 33°45' W 118°13'0 0.0
2018-Jun-18 09:30N 33°45' W 118°13'0 0.0
2018-Jun-18 09:00N 33°45' W 118°13'1 2.8
2018-Jun-18 08:30N 33°44' W 118°12'3 5.4
2018-Jun-18 08:00N 33°42' W 118°11'4 7.6
2018-Jun-18 07:30N 33°38' W 118°12'510.8
2018-Jun-18 07:00N 33°36' W 118°18'611.9
2018-Jun-18 06:30N 33°36' W 118°25'611.7
2018-Jun-18 06:00N 33°36' W 118°32'611.7
2018-Jun-18 05:30N 33°36' W 118°39'611.6
2018-Jun-18 05:00N 33°37' W 118°46'611.7
2018-Jun-18 04:31N 33°37' W 118°53'612.1
2018-Jun-18 04:00N 33°38' W 119°00'5 9.3
2018-Jun-18 03:30N 33°38' W 119°06'510.3
2018-Jun-18 03:00N 33°38' W 119°12'612.8
2018-Jun-18 02:30N 33°38' W 119°20'613.0
2018-Jun-18 02:00N 33°38' W 119°28'713.0
2018-Jun-18 01:30N 33°38' W 119°35'713.1
2018-Jun-18 00:59N 33°38' W 119°43'613.5
2018-Jun-18 00:30N 33°38' W 119°51'713.5
2018-Jun-18 00:00N 33°38' W 119°59'713.5
2018-Jun-17 23:29N 33°38' W 120°08'713.5
2018-Jun-17 23:00N 33°38' W 120°16'714.0
2018-Jun-17 22:30N 33°38' W 120°24'713.8
2018-Jun-17 22:00N 33°38' W 120°32'713.6
2018-Jun-17 21:30N 33°38' W 120°40'713.6
2018-Jun-17 21:00N 33°38' W 120°49'713.4
2018-Jun-17 20:30N 33°38' W 120°57'612.4
2018-Jun-17 20:00N 33°38' W 121°04'612.7
2018-Jun-17 19:31N 33°42' W 121°11'713.5
2018-Jun-17 19:00N 33°46' W 121°17'713.7
2018-Jun-17 18:30N 33°50' W 121°23'713.9
2018-Jun-17 18:00N 33°54' W 121°30'713.9
2018-Jun-17 17:30N 33°58' W 121°37'713.8
2018-Jun-17 16:58N 34°02' W 121°45'614.0
2018-Jun-17 16:31N 34°05' W 121°51'713.9
2018-Jun-17 16:00N 34°09' W 121°58'813.8
2018-Jun-17 15:26N 34°14' W 122°06'1313.7
2018-Jun-17 14:28N 34°22' W 122°19'713.7
2018-Jun-17 13:59N 34°26' W 122°26'713.8
2018-Jun-17 13:30N 34°29' W 122°32'713.9
2018-Jun-17 13:00N 34°34' W 122°39'813.6
2018-Jun-17 12:26N 34°38' W 122°46'613.5
2018-Jun-17 12:00N 34°42' W 122°52'713.7
2018-Jun-17 11:29N 34°46' W 122°59'613.6
2018-Jun-17 11:00N 34°49' W 123°06'1113.4
2018-Jun-17 10:09N 34°56' W 123°17'213.6
2018-Jun-17 09:59N 34°57' W 123°19'3813.3
2018-Jun-17 07:06N 35°20' W 123°57'412.8
2018-Jun-17 06:49N 35°22' W 124°01'22312.7
2018-Jun-16 13:16N 37°32' W 127°46'613.1
2018-Jun-16 12:49N 37°38' W 127°49'413.3
2018-Jun-16 12:30N 37°41' W 127°51'813.3
2018-Jun-16 11:52N 37°49' W 127°56'  

Dump ship's entire track history